Time;durP1;ratioP1;P1;durP2;ratioP2;P2;SDS_P1;SDS_P2;PMS_P1;PMS_P2;Temp;Humidity;BMP_temperature;BMP_pressure;BME280_temperature;BME280_humidity;BME280_pressure;Samples;Min_cycle;Max_cycle;Signal;HPM_P1;HPM_P2
2022/10/13 00:02:19;;;;;;;;;;;;;;;11.21;83.05;101873.72;5024121;28;19963;-60
2022/10/13 00:04:44;;;;;;;;;;;;;;;11.23;83.21;101877.06;5027575;28;19953;-61
2022/10/13 00:07:09;;;;;;;;;;;;;;;11.26;83.42;101876.75;5028816;28;19925;-61
2022/10/13 00:09:34;;;;;;;;;;;;;;;11.28;83.57;101866.84;5024037;28;19917;-61
2022/10/13 00:12:00;;;;;;;;;;;;;;;11.30;83.09;101859.56;5028894;28;19921;-60
2022/10/13 00:14:25;;;;;;;;;;;;;;;11.32;83.37;101860.25;5025727;28;19917;-60
2022/10/13 00:16:50;;;;;;;;;;;;;;;11.33;83.34;101855.75;5026844;28;19921;-60
2022/10/13 00:19:15;;;;;;;;;;;;;;;11.33;83.57;101851.28;5024965;28;19983;-61
2022/10/13 00:21:40;;;;;;;;;;;;;;;11.33;83.53;101850.44;5025877;28;20385;-60
2022/10/13 00:24:08;;;;;;;;;;;;;;;11.34;84.01;101852.94;5064066;22;19986;-61
2022/10/13 00:26:33;;;;;;;;;;;;;;;11.34;83.73;101847.63;5044631;28;19957;-61
2022/10/13 00:28:58;;;;;;;;;;;;;;;11.36;83.33;101848.31;5042659;28;19951;-61
2022/10/13 00:31:25;;;;;;;;;;;;;;;11.37;83.40;101847.31;5042259;28;19920;-61
2022/10/13 00:33:51;;;;;;;;;;;;;;;11.40;83.09;101846.19;5046154;28;20761;-61
2022/10/13 00:36:17;;;;;;;;;;;;;;;11.40;83.75;101839.03;5039210;28;20020;-61
2022/10/13 00:38:42;;;;;;;;;;;;;;;11.40;83.80;101852.34;5043187;28;20377;-61
2022/10/13 00:41:08;;;;;;;;;;;;;;;11.41;83.95;101847.84;5037631;28;19928;-61
2022/10/13 00:43:47;;;;;;;;;;;;;;;11.42;83.85;101844.19;5036086;28;19917;-61
2022/10/13 00:46:12;;;;;;;;;;;;;;;11.43;83.84;101849.38;5041373;28;19931;-61
2022/10/13 00:48:39;;;;;;;;;;;;;;;11.44;84.04;101845.72;5041168;28;19921;-61
2022/10/13 00:51:04;;;;;;;;;;;;;;;11.45;84.22;101839.41;5042186;28;19978;-61
2022/10/13 00:53:32;;;;;;;;;;;;;;;11.45;84.00;101847.38;5042795;28;19916;-61
2022/10/13 00:55:58;;;;;;;;;;;;;;;11.46;83.90;101840.25;5038537;28;20388;-60
2022/10/13 00:58:24;;;;;;;;;;;;;;;11.47;84.10;101842.75;5034247;28;19926;-61
2022/10/13 01:00:50;;;;;;;;;;;;;;;11.46;83.90;101845.56;5045545;28;19971;-60
2022/10/13 01:03:17;;;;;;;;;;;;;;;11.45;83.78;101842.06;5042141;28;19948;-61
2022/10/13 01:05:42;;;;;;;;;;;;;;;11.45;83.80;101838.56;5044224;28;19962;-61
2022/10/13 01:08:08;;;;;;;;;;;;;;;11.44;84.08;101843.06;5039998;28;20450;-61
2022/10/13 01:10:41;;;;;;;;;;;;;;;11.45;84.29;101847.38;5041575;28;19936;-61
2022/10/13 01:13:19;;;;;;;;;;;;;;;11.43;84.04;101833.41;5044264;28;19916;-61
2022/10/13 01:15:50;;;;;;;;;;;;;;;11.45;84.13;101836.75;5042930;28;20367;-61
2022/10/13 01:18:21;;;;;;;;;;;;;;;11.44;84.07;101839.56;5041728;28;19921;-61
2022/10/13 01:20:52;;;;;;;;;;;;;;;11.43;84.67;101833.41;5035168;28;20674;-61
2022/10/13 01:23:22;;;;;;;;;;;;;;;11.43;84.42;101838.72;5039055;28;19952;-61
2022/10/13 01:25:50;;;;;;;;;;;;;;;11.42;84.59;101834.41;5040278;28;19917;-59
2022/10/13 01:28:15;;;;;;;;;;;;;;;11.41;84.37;101831.88;5041439;28;19917;-61
2022/10/13 01:30:55;;;;;;;;;;;;;;;11.41;84.43;101831.88;5039822;28;19916;-60
2022/10/13 01:33:35;;;;;;;;;;;;;;;11.41;84.97;101835.38;5041204;28;19948;-61
2022/10/13 01:36:09;;;;;;;;;;;;;;;11.39;84.71;101840.03;5034867;28;19925;-61
2022/10/13 01:38:34;;;;;;;;;;;;;;;11.38;85.08;101833.03;5044913;28;19932;-61
2022/10/13 01:41:03;;;;;;;;;;;;;;;11.39;85.00;101831.22;5043005;28;19920;-60
2022/10/13 01:43:31;;;;;;;;;;;;;;;11.38;85.05;101833.03;5038512;28;20388;-61
2022/10/13 01:46:03;;;;;;;;;;;;;;;11.39;84.56;101839.19;5045750;28;20526;-61
2022/10/13 01:48:28;;;;;;;;;;;;;;;11.36;85.14;101832.34;5041566;28;20401;-61
2022/10/13 01:50:55;;;;;;;;;;;;;;;11.37;85.16;101831.38;5040811;28;19921;-60
2022/10/13 01:53:21;;;;;;;;;;;;;;;11.37;84.76;101825.22;5041847;28;19971;-61
2022/10/13 01:55:54;;;;;;;;;;;;;;;11.37;85.11;101830.53;5038902;28;19929;-61
2022/10/13 01:58:19;;;;;;;;;;;;;;;11.36;85.25;101820.88;5039021;28;19990;-61
2022/10/13 02:00:54;;;;;;;;;;;;;;;11.36;85.23;101816.41;5039380;28;19933;-61
2022/10/13 02:03:22;;;;;;;;;;;;;;;11.35;85.60;101817.38;5040391;28;19916;-61
2022/10/13 02:05:54;;;;;;;;;;;;;;;11.36;85.55;101819.06;5042365;28;20013;-61
2022/10/13 02:08:42;;;;;;;;;;;;;;;11.36;85.79;101811.06;5041347;28;19921;-61
2022/10/13 02:11:19;;;;;;;;;;;;;;;11.36;86.07;101802.25;5032876;28;20003;-60
2022/10/13 02:13:53;;;;;;;;;;;;;;;11.35;85.93;101806.75;5039798;28;19917;-61
2022/10/13 02:16:22;;;;;;;;;;;;;;;11.37;86.08;101806.59;5041618;28;19923;-61
2022/10/13 02:18:47;;;;;;;;;;;;;;;11.38;85.96;101802.94;5040469;28;20690;-61
2022/10/13 02:21:14;;;;;;;;;;;;;;;11.38;86.37;101787.81;5040550;28;20418;-61
2022/10/13 02:23:41;;;;;;;;;;;;;;;11.38;86.27;101793.13;5036777;28;19947;-61
2022/10/13 02:26:07;;;;;;;;;;;;;;;11.38;86.30;101789.66;5038703;28;19928;-60
2022/10/13 02:28:35;;;;;;;;;;;;;;;11.38;85.97;101785.16;5041265;28;19917;-61
2022/10/13 02:31:00;;;;;;;;;;;;;;;11.37;86.04;101778.16;5037616;28;20403;-61
2022/10/13 02:33:25;;;;;;;;;;;;;;;11.38;86.19;101785.16;5045054;28;19917;-61
2022/10/13 02:35:51;;;;;;;;;;;;;;;11.40;86.21;101785.00;5043885;28;19920;-61
2022/10/13 02:38:17;;;;;;;;;;;;;;;11.39;86.54;101786.84;5044920;28;20043;-61
2022/10/13 02:40:42;;;;;;;;;;;;;;;11.41;86.46;101787.50;5041047;28;20296;-61
2022/10/13 02:43:07;;;;;;;;;;;;;;;11.42;86.28;101785.69;5038283;28;20638;-60
2022/10/13 02:45:32;;;;;;;;;;;;;;;11.42;86.75;101781.19;5046380;28;20033;-61
2022/10/13 02:47:57;;;;;;;;;;;;;;;11.45;86.74;101780.06;5045767;28;19921;-61
2022/10/13 02:50:23;;;;;;;;;;;;;;;11.46;86.64;101779.91;5043859;28;19927;-61
2022/10/13 02:52:48;;;;;;;;;;;;;;;11.47;86.33;101772.75;5044163;28;20039;-60
2022/10/13 02:55:13;;;;;;;;;;;;;;;11.47;86.46;101762.13;5041616;28;20348;-60
2022/10/13 02:57:38;;;;;;;;;;;;;;;11.49;86.34;101770.78;5047861;28;19932;-61
2022/10/13 03:00:04;;;;;;;;;;;;;;;11.49;86.69;101771.63;5049603;28;19928;-61
2022/10/13 03:02:29;;;;;;;;;;;;;;;11.49;86.60;101765.47;5043362;28;19917;-60
2022/10/13 03:04:55;;;;;;;;;;;;;;;11.49;86.42;101771.63;5042560;28;20609;-61
2022/10/13 03:07:20;;;;;;;;;;;;;;;11.50;86.68;101764.47;5046089;28;19917;-61
2022/10/13 03:09:46;;;;;;;;;;;;;;;11.51;86.60;101762.66;5043187;28;20497;-60
2022/10/13 03:12:11;;;;;;;;;;;;;;;11.52;86.67;101756.34;5043867;28;19916;-61
2022/10/13 03:14:36;;;;;;;;;;;;;;;11.54;86.80;101759.66;5034637;28;19951;-60
2022/10/13 03:17:02;;;;;;;;;;;;;;;11.56;86.82;101757.69;5048707;28;19917;-60
2022/10/13 03:19:27;;;;;;;;;;;;;;;11.55;86.50;101762.19;5047509;28;19917;-61
2022/10/13 03:21:52;;;;;;;;;;;;;;;11.46;86.84;101742.66;5043653;28;19928;-61
2022/10/13 03:24:17;;;;;;;;;;;;;;;11.55;86.74;101753.38;5046640;28;19917;-61
2022/10/13 03:26:42;;;;;;;;;;;;;;;11.56;86.93;101755.03;5042590;28;20004;-60
2022/10/13 03:29:11;;;;;;;;;;;;;;;11.57;86.63;101762.06;5044861;28;20264;-61
2022/10/13 03:31:36;;;;;;;;;;;;;;;11.59;86.72;101755.59;5037012;28;19924;-60
2022/10/13 03:34:02;;;;;;;;;;;;;;;11.59;86.91;101758.25;5039208;28;19948;-60
2022/10/13 03:36:27;;;;;;;;;;;;;;;11.60;87.04;101751.09;5042664;28;20470;-61
2022/10/13 03:38:52;;;;;;;;;;;;;;;11.61;86.86;101753.59;5042033;28;19920;-61
2022/10/13 03:41:17;;;;;;;;;;;;;;;11.62;86.83;101736.66;5035141;28;20000;-61
2022/10/13 03:43:43;;;;;;;;;;;;;;;11.63;86.98;101737.47;5040009;28;19917;-61
2022/10/13 03:46:10;;;;;;;;;;;;;;;11.65;86.71;101735.50;5033429;28;19913;-61
2022/10/13 03:48:35;;;;;;;;;;;;;;;11.66;86.73;101732.69;5041995;28;19974;-61
2022/10/13 03:51:08;;;;;;;;;;;;;;;11.68;86.91;101735.19;5047581;28;19912;-61
2022/10/13 03:53:33;;;;;;;;;;;;;;;11.68;86.94;101736.03;5041721;28;19913;-61
2022/10/13 03:55:58;;;;;;;;;;;;;;;11.69;86.72;101729.72;5044186;28;19941;-61
2022/10/13 03:58:23;;;;;;;;;;;;;;;11.70;86.65;101727.88;5041813;28;20442;-61
2022/10/13 04:00:49;;;;;;;;;;;;;;;11.71;86.85;101721.56;5044577;28;19956;-61
2022/10/13 04:03:15;;;;;;;;;;;;;;;11.71;86.86;101732.22;5046340;28;20402;-61
2022/10/13 04:05:40;;;;;;;;;;;;;;;11.73;86.52;101724.91;5041354;28;19977;-61
2022/10/13 04:08:05;;;;;;;;;;;;;;;11.73;86.77;101730.22;5041660;28;20046;-61
2022/10/13 04:10:30;;;;;;;;;;;;;;;11.73;86.42;101716.91;5042843;28;19917;-61
2022/10/13 04:12:55;;;;;;;;;;;;;;;11.73;86.54;101722.25;5046765;28;20050;-61
2022/10/13 04:15:21;;;;;;;;;;;;;;;11.75;86.54;101725.59;5042972;28;19925;-61
2022/10/13 04:17:46;;;;;;;;;;;;;;;11.74;86.58;101723.91;5047452;28;20059;-61
2022/10/13 04:20:11;;;;;;;;;;;;;;;11.73;86.74;101716.91;5043508;28;19972;-61
2022/10/13 04:22:37;;;;;;;;;;;;;;;11.72;86.75;101720.56;5039637;28;20394;-61
2022/10/13 04:25:02;;;;;;;;;;;;;;;11.73;86.18;101722.25;5041715;28;19924;-61
2022/10/13 04:27:27;;;;;;;;;;;;;;;11.71;86.58;101719.75;5044644;28;19924;-60
2022/10/13 04:29:52;;;;;;;;;;;;;;;11.72;86.51;101726.72;5040961;28;19948;-61
2022/10/13 04:32:18;;;;;;;;;;;;;;;11.71;86.39;101719.75;5045094;28;20398;-61
2022/10/13 04:34:43;;;;;;;;;;;;;;;11.71;86.56;101711.75;5044380;28;19924;-61
2022/10/13 04:37:08;;;;;;;;;;;;;;;11.72;86.48;101704.59;5042951;28;20046;-61
2022/10/13 04:39:33;;;;;;;;;;;;;;;11.71;86.58;101701.13;5038111;28;19917;-60
2022/10/13 04:41:59;;;;;;;;;;;;;;;11.72;86.19;101699.28;5038861;28;20006;-61
2022/10/13 04:44:24;;;;;;;;;;;;;;;11.70;86.14;101696.78;5043011;28;19917;-61
2022/10/13 04:46:49;;;;;;;;;;;;;;;11.69;86.38;101715.56;5043811;28;19933;-60
2022/10/13 04:49:15;;;;;;;;;;;;;;;11.65;86.86;101720.38;5038531;28;19937;-61
2022/10/13 04:51:40;;;;;;;;;;;;;;;11.65;86.92;101706.22;5046639;28;19927;-61
2022/10/13 04:54:05;;;;;;;;;;;;;;;11.63;86.93;101716.19;5037162;28;20071;-61
2022/10/13 04:56:31;;;;;;;;;;;;;;;11.61;87.00;101716.34;5038401;28;19916;-61
2022/10/13 04:58:56;;;;;;;;;;;;;;;11.59;87.01;101717.50;5040901;28;19924;-60
2022/10/13 05:01:22;;;;;;;;;;;;;;;11.56;87.31;101710.63;5039856;28;19925;-61
2022/10/13 05:03:55;;;;;;;;;;;;;;;11.56;87.62;101712.47;5041513;28;19913;-61
2022/10/13 05:06:21;;;;;;;;;;;;;;;11.56;87.90;101712.47;5040017;28;19920;-61
2022/10/13 05:08:47;;;;;;;;;;;;;;;11.54;87.70;101707.31;5036665;28;19923;-61
2022/10/13 05:11:12;;;;;;;;;;;;;;;11.54;87.50;101687.84;5044240;28;19917;-61
2022/10/13 05:13:37;;;;;;;;;;;;;;;11.54;87.52;101693.16;5044589;28;19912;-61
2022/10/13 05:16:10;;;;;;;;;;;;;;;11.51;87.52;101689.00;5044539;28;19924;-61
2022/10/13 05:18:35;;;;;;;;;;;;;;;11.52;87.84;101692.50;5040953;28;19921;-61
2022/10/13 05:21:06;;;;;;;;;;;;;;;11.49;87.67;101681.19;5041011;28;19921;-61
2022/10/13 05:23:32;;;;;;;;;;;;;;;11.48;87.80;101695.47;5041781;28;20537;-61
2022/10/13 05:25:59;;;;;;;;;;;;;;;11.47;87.59;101707.09;5040961;28;20519;-61
2022/10/13 05:28:25;;;;;;;;;;;;;;;11.48;87.89;101697.28;5039290;28;20399;-61
2022/10/13 05:30:50;;;;;;;;;;;;;;;11.47;87.56;101701.78;5045750;28;20058;-61
2022/10/13 05:33:15;;;;;;;;;;;;;;;11.48;87.51;101708.75;5043721;28;19923;-61
2022/10/13 05:35:41;;;;;;;;;;;;;;;11.48;87.60;101710.59;5041650;28;20012;-60
2022/10/13 05:38:06;;;;;;;;;;;;;;;11.48;87.90;101716.75;5043888;28;19920;-61
2022/10/13 05:40:32;;;;;;;;;;;;;;;11.48;87.72;101711.44;5036631;28;19927;-61
2022/10/13 05:42:57;;;;;;;;;;;;;;;11.48;87.87;101711.44;5039592;28;20339;-61
2022/10/13 05:45:23;;;;;;;;;;;;;;;11.48;87.98;101711.44;5039047;28;19940;-61
2022/10/13 05:47:48;;;;;;;;;;;;;;;11.47;88.53;101715.06;5041473;28;19925;-61
2022/10/13 05:50:13;;;;;;;;;;;;;;;11.47;88.09;101696.47;5042943;28;20611;-61
2022/10/13 05:52:38;;;;;;;;;;;;;;;11.48;88.16;101700.78;5041823;28;19921;-61
2022/10/13 05:55:04;;;;;;;;;;;;;;;11.49;88.22;101697.13;5048550;28;19913;-61
2022/10/13 05:57:32;;;;;;;;;;;;;;;11.49;88.25;101696.31;5044827;28;20416;-61
2022/10/13 06:00:00;;;;;;;;;;;;;;;11.49;88.04;101699.78;5048372;28;19920;-61
2022/10/13 06:02:29;;;;;;;;;;;;;;;11.51;88.22;101696.16;5047426;28;19921;-61
2022/10/13 06:04:56;;;;;;;;;;;;;;;11.52;88.30;101695.16;5042418;28;19967;-61
2022/10/13 06:07:21;;;;;;;;;;;;;;;11.49;88.13;101689.16;5040370;28;19917;-61
2022/10/13 06:09:47;;;;;;;;;;;;;;;11.53;88.01;101691.50;5049315;28;19924;-61
2022/10/13 06:12:12;;;;;;;;;;;;;;;11.53;87.94;101691.50;5047418;28;19948;-61
2022/10/13 06:14:37;;;;;;;;;;;;;;;11.54;87.95;101699.31;5045032;28;20384;-61
2022/10/13 06:17:03;;;;;;;;;;;;;;;11.54;88.08;101687.84;5046128;28;19920;-61
2022/10/13 06:19:28;;;;;;;;;;;;;;;11.55;88.15;101687.69;5050198;28;20475;-60
2022/10/13 06:21:53;;;;;;;;;;;;;;;11.57;87.71;101680.41;5049788;28;19917;-61
2022/10/13 06:24:18;;;;;;;;;;;;;;;11.59;87.66;101683.75;5064412;22;19956;-59
2022/10/13 06:26:44;;;;;;;;;;;;;;;11.61;87.77;101686.25;5042878;28;19957;-60
2022/10/13 06:29:10;;;;;;;;;;;;;;;11.61;87.77;101687.09;5044971;28;19928;-59
2022/10/13 06:31:35;;;;;;;;;;;;;;;11.61;87.80;101687.09;5055657;28;19921;-60
2022/10/13 06:34:00;;;;;;;;;;;;;;;11.60;88.30;101693.41;5045825;28;20284;-59
2022/10/13 06:36:25;;;;;;;;;;;;;;;11.59;88.33;101685.59;5047533;28;19920;-59
2022/10/13 06:38:50;;;;;;;;;;;;;;;11.61;88.03;101686.25;5053478;28;20046;-60
2022/10/13 06:41:16;;;;;;;;;;;;;;;11.62;88.02;101679.94;5047379;28;19925;-60
2022/10/13 06:43:41;;;;;;;;;;;;;;;11.62;88.36;101674.63;5044804;28;19921;-60
2022/10/13 06:46:07;;;;;;;;;;;;;;;11.63;88.08;101677.13;5048736;28;20541;-60
2022/10/13 06:48:32;;;;;;;;;;;;;;;11.64;88.22;101676.13;5044629;28;19920;-59
2022/10/13 06:51:01;;;;;;;;;;;;;;;11.64;88.39;101669.97;5044137;28;20019;-59
2022/10/13 06:53:27;;;;;;;;;;;;;;;11.65;88.29;101671.66;5041963;28;19963;-59
2022/10/13 06:55:55;;;;;;;;;;;;;;;11.65;88.29;101666.31;5044608;28;19921;-60
2022/10/13 06:58:20;;;;;;;;;;;;;;;11.66;88.05;101674.16;5047384;28;19921;-59
2022/10/13 07:00:45;;;;;;;;;;;;;;;11.67;87.96;101667.00;5044469;28;20410;-60
2022/10/13 07:03:11;;;;;;;;;;;;;;;11.68;87.87;101674.81;5044033;28;19917;-60
2022/10/13 07:05:36;;;;;;;;;;;;;;;11.70;88.06;101677.31;5045472;28;20402;-60
2022/10/13 07:08:01;;;;;;;;;;;;;;;11.71;88.14;101689.63;5041487;28;20011;-59
2022/10/13 07:10:26;;;;;;;;;;;;;;;11.71;88.24;101692.28;5040456;28;19917;-59
2022/10/13 07:12:51;;;;;;;;;;;;;;;11.71;88.23;101690.47;5043845;28;20039;-60
2022/10/13 07:15:16;;;;;;;;;;;;;;;11.71;88.51;101687.81;5045934;28;19931;-59
2022/10/13 07:17:42;;;;;;;;;;;;;;;11.73;88.60;101679.66;5045717;28;20296;-60
2022/10/13 07:20:07;;;;;;;;;;;;;;;11.74;88.39;101682.16;5045686;28;19921;-60
2022/10/13 07:22:32;;;;;;;;;;;;;;;11.75;88.40;101683.00;5045095;28;19963;-60
2022/10/13 07:24:57;;;;;;;;;;;;;;;11.76;88.35;101688.16;5044829;28;20003;-59
2022/10/13 07:27:23;;;;;;;;;;;;;;;11.76;88.47;101685.50;5046677;28;19974;-60
2022/10/13 07:29:48;;;;;;;;;;;;;;;11.78;88.25;101688.03;5051910;28;19917;-60
2022/10/13 07:32:13;;;;;;;;;;;;;;;11.80;88.27;101683.38;5046704;28;19917;-59
2022/10/13 07:34:38;;;;;;;;;;;;;;;11.79;88.34;101693.19;5057834;28;19912;-60
2022/10/13 07:37:03;;;;;;;;;;;;;;;11.80;88.52;101683.38;5046825;28;20012;-58
2022/10/13 07:39:29;;;;;;;;;;;;;;;11.82;88.25;101678.75;5042872;28;19923;-59
2022/10/13 07:41:54;;;;;;;;;;;;;;;11.84;88.34;101690.06;5046221;28;20007;-59
2022/10/13 07:44:19;;;;;;;;;;;;;;;11.85;88.63;101683.75;5052647;28;19995;-58
2022/10/13 07:46:44;;;;;;;;;;;;;;;11.87;88.62;101681.78;5048431;28;20307;-58
2022/10/13 07:49:09;;;;;;;;;;;;;;;11.89;88.26;101677.16;5052408;28;19950;-58
2022/10/13 07:51:34;;;;;;;;;;;;;;;11.93;88.41;101681.16;5050547;28;19921;-59
2022/10/13 07:54:00;;;;;;;;;;;;;;;11.95;88.27;101676.50;5053831;28;19913;-57
2022/10/13 07:56:25;;;;;;;;;;;;;;;11.98;88.16;101681.50;5053739;28;20006;-59
2022/10/13 07:58:50;;;;;;;;;;;;;;;12.00;88.21;101682.19;5048739;28;20300;-58
2022/10/13 08:01:16;;;;;;;;;;;;;;;12.02;88.13;101679.34;5053713;28;20376;-58
2022/10/13 08:03:41;;;;;;;;;;;;;;;12.01;88.10;101678.53;5053402;28;20372;-60
2022/10/13 08:06:06;;;;;;;;;;;;;;;12.04;88.30;101674.69;5057106;28;20261;-58
2022/10/13 08:08:32;;;;;;;;;;;;;;;12.08;88.12;101682.22;5043421;28;19916;-59
2022/10/13 08:11:04;;;;;;;;;;;;;;;12.10;88.11;101679.38;5045652;28;20303;-59
2022/10/13 08:13:29;;;;;;;;;;;;;;;12.12;88.34;101681.88;5050003;28;19962;-59
2022/10/13 08:15:58;;;;;;;;;;;;;;;12.14;88.40;101674.56;5055279;28;20005;-58
2022/10/13 08:18:23;;;;;;;;;;;;;;;12.17;88.17;101674.28;5046095;28;20043;-60
2022/10/13 08:20:48;;;;;;;;;;;;;;;12.19;88.04;101666.97;5038469;28;20027;-58
2022/10/13 08:23:13;;;;;;;;;;;;;;;12.21;87.99;101680.94;5047433;28;19927;-58
2022/10/13 08:25:40;;;;;;;;;;;;;;;12.22;88.23;101678.13;5048680;28;19956;-59
2022/10/13 08:28:06;;;;;;;;;;;;;;;12.25;88.04;101675.13;5055930;28;19913;-58
2022/10/13 08:30:31;;;;;;;;;;;;;;;12.30;87.82;101658.66;5052875;28;20380;-59
2022/10/13 08:32:56;;;;;;;;;;;;;;;12.34;87.90;101668.00;5048281;28;19927;-58
2022/10/13 08:35:21;;;;;;;;;;;;;;;12.39;88.04;101663.00;5046636;28;20273;-59
2022/10/13 08:37:46;;;;;;;;;;;;;;;12.43;87.96;101667.00;5057551;28;20011;-58
2022/10/13 08:40:15;;;;;;;;;;;;;;;12.48;87.68;101667.38;5041534;28;19955;-58
2022/10/13 08:42:42;;;;;;;;;;;;;;;12.52;87.85;101666.06;5040202;28;19917;-59
2022/10/13 08:45:14;;;;;;;;;;;;;;;12.57;87.56;101668.22;5046686;28;19916;-58
2022/10/13 08:47:44;;;;;;;;;;;;;;;12.60;87.64;101666.06;5046343;28;19929;-58
2022/10/13 08:50:12;;;;;;;;;;;;;;;12.63;87.38;101665.75;5047238;28;20863;-58
2022/10/13 08:52:45;;;;;;;;;;;;;;;12.65;87.53;101663.75;5048392;28;19921;-58
2022/10/13 08:55:43;;;;;;;;;;;;;;;12.68;87.14;101668.75;5043044;28;19921;-59
2022/10/13 08:58:11;;;;;;;;;;;;;;;12.71;87.29;101664.91;4990829;28;19912;-58
2022/10/13 09:00:36;;;;;;;;;;;;;;;12.72;87.23;101666.56;5043680;28;20171;-59
2022/10/13 09:03:15;;;;;;;;;;;;;;;12.74;87.26;101669.09;5042542;28;20411;-58
2022/10/13 09:05:44;;;;;;;;;;;;;;;12.75;86.72;101665.44;5038219;28;19921;-57
2022/10/13 09:08:15;;;;;;;;;;;;;;;12.77;87.01;101664.28;5048373;28;19964;-58
2022/10/13 09:10:47;;;;;;;;;;;;;;;12.80;86.85;101657.78;5044497;28;19974;-58
2022/10/13 09:13:12;;;;;;;;;;;;;;;12.84;86.81;101661.78;5050112;28;19966;-58
2022/10/13 09:15:41;;;;;;;;;;;;;;;12.86;86.77;101657.13;5051699;28;19917;-58
2022/10/13 09:18:09;;;;;;;;;;;;;;;12.87;86.56;101654.28;5048680;28;19982;-58
2022/10/13 09:20:34;;;;;;;;;;;;;;;12.90;86.85;101661.09;5045408;28;20636;-58
2022/10/13 09:23:01;;;;;;;;;;;;;;;12.91;86.46;101660.09;5044030;28;20475;-58
2022/10/13 09:25:27;;;;;;;;;;;;;;;12.92;86.47;101653.78;5039001;28;20547;-58
2022/10/13 09:27:55;;;;;;;;;;;;;;;12.97;86.46;101652.28;5039824;28;20669;-59
2022/10/13 09:30:26;;;;;;;;;;;;;;;13.02;86.57;101649.13;5047194;28;20016;-58
2022/10/13 09:33:12;;;;;;;;;;;;;;;13.08;86.80;101656.47;5044567;28;19921;-59
2022/10/13 09:35:39;;;;;;;;;;;;;;;13.11;86.56;101653.47;5038254;28;19924;-58
2022/10/13 09:38:05;;;;;;;;;;;;;;;13.14;86.52;101662.97;5040377;28;19925;-58
2022/10/13 09:40:31;;;;;;;;;;;;;;;13.16;86.43;101663.63;5043304;28;19978;-58
2022/10/13 09:42:57;;;;;;;;;;;;;;;13.18;86.26;101657.16;5047301;28;19917;-58
2022/10/13 09:45:23;;;;;;;;;;;;;;;13.22;85.91;101650.47;5049502;28;19916;-58
2022/10/13 09:47:50;;;;;;;;;;;;;;;13.26;86.03;101653.63;5051014;28;20340;-59
2022/10/13 09:50:21;;;;;;;;;;;;;;;13.27;85.95;101649.97;5044884;28;20144;-58
2022/10/13 09:52:47;;;;;;;;;;;;;;;13.25;85.39;101649.31;5049371;28;19924;-59
2022/10/13 09:55:30;;;;;;;;;;;;;;;13.23;85.43;101648.63;5047626;28;19916;-58
2022/10/13 09:57:59;;;;;;;;;;;;;;;13.21;85.44;101645.31;5043589;28;19923;-58
2022/10/13 10:00:25;;;;;;;;;;;;;;;13.18;85.25;101649.16;5049468;28;20296;-59
2022/10/13 10:03:09;;;;;;;;;;;;;;;13.18;85.27;101645.66;5048045;28;20269;-59
2022/10/13 10:05:34;;;;;;;;;;;;;;;13.16;85.59;101647.63;5048884;28;19916;-59
2022/10/13 10:08:04;;;;;;;;;;;;;;;13.14;85.59;101644.28;5046189;28;19935;-58
2022/10/13 10:10:34;;;;;;;;;;;;;;;13.10;85.46;101643.78;5047963;28;19917;-58
2022/10/13 10:13:00;;;;;;;;;;;;;;;13.10;85.24;101640.28;5045468;28;19925;-59
2022/10/13 10:15:32;;;;;;;;;;;;;;;13.12;85.61;101638.28;5045226;28;19917;-58
2022/10/13 10:18:02;;;;;;;;;;;;;;;13.15;85.35;101630.78;5049667;28;19917;-58
2022/10/13 10:20:27;;;;;;;;;;;;;;;13.16;85.66;101631.63;5048844;28;19917;-58
2022/10/13 10:22:55;;;;;;;;;;;;;;;13.16;85.68;101631.63;5048413;28;19916;-59
2022/10/13 10:25:25;;;;;;;;;;;;;;;13.14;85.54;101633.63;5043057;28;19979;-58
2022/10/13 10:28:08;;;;;;;;;;;;;;;13.10;85.41;101635.78;5046035;28;20291;-58
2022/10/13 10:30:38;;;;;;;;;;;;;;;13.07;85.77;101633.47;5046103;28;19925;-56
2022/10/13 10:33:10;;;;;;;;;;;;;;;13.07;85.76;101635.28;5058216;28;19925;-58
2022/10/13 10:35:58;;;;;;;;;;;;;;;13.07;85.64;101630.78;5040456;28;19921;-58
2022/10/13 10:38:35;;;;;;;;;;;;;;;13.11;85.57;101629.47;5042529;28;19947;-58
2022/10/13 10:41:00;;;;;;;;;;;;;;;13.09;85.94;101634.13;5044878;28;20526;-57
2022/10/13 10:43:40;;;;;;;;;;;;;;;13.11;85.70;101629.47;5041866;28;20498;-58
2022/10/13 10:46:13;;;;;;;;;;;;;;;13.10;85.88;101633.13;5045701;28;20342;-58
2022/10/13 10:48:39;;;;;;;;;;;;;;;13.09;86.07;101631.47;5040181;28;19925;-58
2022/10/13 10:51:08;;;;;;;;;;;;;;;13.11;86.20;101626.78;5039226;28;19916;-58
2022/10/13 10:53:33;;;;;;;;;;;;;;;13.17;86.27;101627.94;5046360;28;19925;-58
2022/10/13 10:56:05;;;;;;;;;;;;;;;13.16;86.05;101637.78;5046174;28;21620;-58
2022/10/13 10:58:37;;;;;;;;;;;;;;;13.19;86.13;101628.63;5049527;28;19912;-56
2022/10/13 11:01:02;;;;;;;;;;;;;;;13.19;86.37;101629.47;5049520;28;19929;-57
2022/10/13 11:03:50;;;;;;;;;;;;;;;13.14;86.71;101622.94;5046247;28;19912;-58
2022/10/13 11:06:15;;;;;;;;;;;;;;;13.10;86.42;101622.47;5028517;28;19920;-59
2022/10/13 11:08:45;;;;;;;;;;;;;;;13.09;86.51;101615.47;5047242;28;19967;-60
2022/10/13 11:11:27;;;;;;;;;;;;;;;13.07;86.64;101617.47;5049656;28;19943;-58
2022/10/13 11:13:53;;;;;;;;;;;;;;;13.05;86.76;101614.13;5046696;28;19921;-58
2022/10/13 11:16:35;;;;;;;;;;;;;;;13.07;86.91;101606.78;5046244;28;19923;-58
2022/10/13 11:19:18;;;;;;;;;;;;;;;13.13;86.97;101603.44;5057694;28;19913;-58
2022/10/13 11:21:53;;;;;;;;;;;;;;;13.16;86.72;101596.94;5046689;28;19968;-59
2022/10/13 11:24:33;;;;;;;;;;;;;;;13.18;86.65;101597.63;5053050;28;19924;-58
2022/10/13 11:27:10;;;;;;;;;;;;;;;13.20;86.67;101593.81;5044043;28;19964;-58
2022/10/13 11:29:47;;;;;;;;;;;;;;;13.22;86.72;101597.13;5045840;28;19917;-58
2022/10/13 11:32:25;;;;;;;;;;;;;;;13.17;86.85;101591.47;5044832;28;19917;-59
2022/10/13 11:34:58;;;;;;;;;;;;;;;13.18;87.03;101589.63;5049139;28;20428;-58
2022/10/13 11:37:28;;;;;;;;;;;;;;;13.20;86.88;101580.47;5055355;28;19916;-58
2022/10/13 11:40:12;;;;;;;;;;;;;;;13.22;87.00;101577.63;5050843;28;19963;-58
2022/10/13 11:42:41;;;;;;;;;;;;;;;13.24;86.93;101578.28;5047872;28;19924;-59
2022/10/13 11:45:09;;;;;;;;;;;;;;;13.24;86.60;101568.44;5048022;28;19931;-58
2022/10/13 11:47:40;;;;;;;;;;;;;;;13.25;86.98;101567.44;5044583;28;19921;-59
2022/10/13 11:50:11;;;;;;;;;;;;;;;13.26;86.71;101566.44;5045383;28;19917;-58
2022/10/13 11:52:55;;;;;;;;;;;;;;;13.27;86.92;101562.78;5045487;28;20561;-58
2022/10/13 11:55:38;;;;;;;;;;;;;;;13.30;86.97;101567.78;5039612;28;19917;-58
2022/10/13 11:58:07;;;;;;;;;;;;;;;13.33;86.87;101570.13;5040664;28;19931;-58
2022/10/13 12:00:33;;;;;;;;;;;;;;;13.37;87.16;101559.94;5038342;28;19955;-58
2022/10/13 12:02:58;;;;;;;;;;;;;;;13.37;87.39;101564.44;5044361;28;20430;-57
2022/10/13 12:05:24;;;;;;;;;;;;;;;13.39;87.01;101549.09;5043477;28;19948;-58
2022/10/13 12:07:51;;;;;;;;;;;;;;;13.42;87.24;101562.06;5043778;28;19917;-58
2022/10/13 12:10:27;;;;;;;;;;;;;;;13.44;87.72;101554.72;5048448;28;20008;-59
2022/10/13 12:12:53;;;;;;;;;;;;;;;13.39;87.74;101559.75;5047116;28;19921;-58
2022/10/13 12:15:35;;;;;;;;;;;;;;;13.33;88.12;101554.09;5045191;28;19935;-58
2022/10/13 12:18:00;;;;;;;;;;;;;;;13.28;88.40;101548.44;5047024;28;19916;-57
2022/10/13 12:20:31;;;;;;;;;;;;;;;13.26;88.45;101554.94;5044241;28;19921;-58
2022/10/13 12:22:56;;;;;;;;;;;;;;;13.24;89.13;101559.63;5044375;28;19925;-58
2022/10/13 12:25:26;;;;;;;;;;;;;;;13.21;89.20;101544.78;5047133;28;19931;-59
2022/10/13 12:27:53;;;;;;;;;;;;;;;13.22;89.44;101551.78;5047853;28;19912;-58
2022/10/13 12:30:23;;;;;;;;;;;;;;;13.20;89.66;101550.28;5043297;28;19916;-59
2022/10/13 12:32:50;;;;;;;;;;;;;;;13.23;89.65;101552.63;5046184;28;19925;-57
2022/10/13 12:35:18;;;;;;;;;;;;;;;13.27;89.90;101553.94;5054884;28;19931;-59
2022/10/13 12:37:43;;;;;;;;;;;;;;;13.31;89.84;101541.94;5047093;28;19921;-59
2022/10/13 12:40:12;;;;;;;;;;;;;;;13.35;89.66;101547.78;5052136;28;19919;-59